sensor_id;sensor_type;location;lat;lon;timestamp;P1;durP1;ratioP1;P2;durP2;ratioP2
10880;SDS011;5493;48.884;8.338;2023-07-28T00:01:01;3.88;;;1.52;;
10880;SDS011;5493;48.884;8.338;2023-07-28T00:03:28;2.03;;;1.63;;
10880;SDS011;5493;48.884;8.338;2023-07-28T00:05:54;2.47;;;1.80;;
10880;SDS011;5493;48.884;8.338;2023-07-28T00:08:20;2.53;;;1.80;;
10880;SDS011;5493;48.884;8.338;2023-07-28T00:10:47;3.65;;;1.80;;
10880;SDS011;5493;48.884;8.338;2023-07-28T00:13:13;3.72;;;1.80;;
10880;SDS011;5493;48.884;8.338;2023-07-28T00:15:41;1.92;;;1.65;;
10880;SDS011;5493;48.884;8.338;2023-07-28T00:18:08;1.92;;;1.70;;
10880;SDS011;5493;48.884;8.338;2023-07-28T00:20:34;2.92;;;1.75;;
10880;SDS011;5493;48.884;8.338;2023-07-28T00:23:00;2.88;;;1.98;;
10880;SDS011;5493;48.884;8.338;2023-07-28T00:25:27;4.35;;;1.90;;
10880;SDS011;5493;48.884;8.338;2023-07-28T00:27:53;2.08;;;1.88;;
10880;SDS011;5493;48.884;8.338;2023-07-28T00:30:21;3.40;;;1.92;;
10880;SDS011;5493;48.884;8.338;2023-07-28T00:32:49;4.85;;;2.00;;
10880;SDS011;5493;48.884;8.338;2023-07-28T00:35:16;2.33;;;1.73;;
10880;SDS011;5493;48.884;8.338;2023-07-28T00:37:42;2.70;;;2.00;;
10880;SDS011;5493;48.884;8.338;2023-07-28T00:40:09;1.73;;;1.58;;
10880;SDS011;5493;48.884;8.338;2023-07-28T00:42:36;2.72;;;1.92;;
10880;SDS011;5493;48.884;8.338;2023-07-28T00:45:03;3.20;;;1.85;;
10880;SDS011;5493;48.884;8.338;2023-07-28T00:47:30;2.92;;;1.75;;
10880;SDS011;5493;48.884;8.338;2023-07-28T00:49:58;2.78;;;2.20;;
10880;SDS011;5493;48.884;8.338;2023-07-28T00:52:24;2.60;;;1.90;;
10880;SDS011;5493;48.884;8.338;2023-07-28T00:54:51;3.72;;;1.90;;
10880;SDS011;5493;48.884;8.338;2023-07-28T00:57:17;2.50;;;1.85;;
10880;SDS011;5493;48.884;8.338;2023-07-28T00:59:44;2.00;;;1.80;;
10880;SDS011;5493;48.884;8.338;2023-07-28T01:02:11;2.33;;;1.90;;
10880;SDS011;5493;48.884;8.338;2023-07-28T01:04:38;1.95;;;1.60;;
10880;SDS011;5493;48.884;8.338;2023-07-28T01:07:08;3.60;;;1.98;;
10880;SDS011;5493;48.884;8.338;2023-07-28T01:09:38;5.05;;;2.20;;
10880;SDS011;5493;48.884;8.338;2023-07-28T01:12:28;4.43;;;2.08;;
10880;SDS011;5493;48.884;8.338;2023-07-28T01:14:55;2.13;;;1.92;;
10880;SDS011;5493;48.884;8.338;2023-07-28T01:17:21;3.55;;;2.08;;
10880;SDS011;5493;48.884;8.338;2023-07-28T01:19:49;2.70;;;2.10;;
10880;SDS011;5493;48.884;8.338;2023-07-28T01:22:23;4.18;;;2.40;;
10880;SDS011;5493;48.884;8.338;2023-07-28T01:25:06;3.05;;;2.30;;
10880;SDS011;5493;48.884;8.338;2023-07-28T01:27:41;3.10;;;1.80;;
10880;SDS011;5493;48.884;8.338;2023-07-28T01:30:09;3.60;;;2.20;;
10880;SDS011;5493;48.884;8.338;2023-07-28T01:32:37;2.03;;;1.70;;
10880;SDS011;5493;48.884;8.338;2023-07-28T01:35:04;5.18;;;2.15;;
10880;SDS011;5493;48.884;8.338;2023-07-28T01:37:31;3.13;;;2.40;;
10880;SDS011;5493;48.884;8.338;2023-07-28T01:39:57;3.83;;;2.35;;
10880;SDS011;5493;48.884;8.338;2023-07-28T01:42:24;6.45;;;2.15;;
10880;SDS011;5493;48.884;8.338;2023-07-28T01:44:51;3.83;;;2.20;;
10880;SDS011;5493;48.884;8.338;2023-07-28T01:47:18;2.97;;;2.08;;
10880;SDS011;5493;48.884;8.338;2023-07-28T01:49:44;4.00;;;2.10;;
10880;SDS011;5493;48.884;8.338;2023-07-28T01:52:11;2.20;;;1.80;;
10880;SDS011;5493;48.884;8.338;2023-07-28T01:54:37;2.57;;;1.87;;
10880;SDS011;5493;48.884;8.338;2023-07-28T01:57:04;2.50;;;2.30;;
10880;SDS011;5493;48.884;8.338;2023-07-28T01:59:31;2.80;;;2.00;;
10880;SDS011;5493;48.884;8.338;2023-07-28T02:01:58;2.58;;;1.80;;
10880;SDS011;5493;48.884;8.338;2023-07-28T02:04:25;2.40;;;2.03;;
10880;SDS011;5493;48.884;8.338;2023-07-28T02:06:51;2.08;;;1.88;;
10880;SDS011;5493;48.884;8.338;2023-07-28T02:09:18;5.13;;;2.30;;
10880;SDS011;5493;48.884;8.338;2023-07-28T02:11:44;3.47;;;2.00;;
10880;SDS011;5493;48.884;8.338;2023-07-28T02:14:11;3.47;;;2.28;;
10880;SDS011;5493;48.884;8.338;2023-07-28T02:16:37;4.47;;;2.17;;
10880;SDS011;5493;48.884;8.338;2023-07-28T02:19:05;3.07;;;1.90;;
10880;SDS011;5493;48.884;8.338;2023-07-28T02:21:32;3.73;;;2.10;;
10880;SDS011;5493;48.884;8.338;2023-07-28T02:23:59;3.42;;;2.10;;
10880;SDS011;5493;48.884;8.338;2023-07-28T02:26:26;2.17;;;1.98;;
10880;SDS011;5493;48.884;8.338;2023-07-28T02:28:52;3.20;;;2.20;;
10880;SDS011;5493;48.884;8.338;2023-07-28T02:31:19;3.55;;;2.10;;
10880;SDS011;5493;48.884;8.338;2023-07-28T02:33:45;2.72;;;2.13;;
10880;SDS011;5493;48.884;8.338;2023-07-28T02:36:13;3.58;;;2.10;;
10880;SDS011;5493;48.884;8.338;2023-07-28T02:38:39;4.95;;;2.15;;
10880;SDS011;5493;48.884;8.338;2023-07-28T02:41:06;2.45;;;2.00;;
10880;SDS011;5493;48.884;8.338;2023-07-28T02:43:32;3.95;;;2.22;;
10880;SDS011;5493;48.884;8.338;2023-07-28T02:45:59;2.78;;;2.13;;
10880;SDS011;5493;48.884;8.338;2023-07-28T02:48:26;2.67;;;1.77;;
10880;SDS011;5493;48.884;8.338;2023-07-28T02:50:53;3.08;;;2.10;;
10880;SDS011;5493;48.884;8.338;2023-07-28T02:53:20;4.10;;;2.13;;
10880;SDS011;5493;48.884;8.338;2023-07-28T02:55:47;3.78;;;2.20;;
10880;SDS011;5493;48.884;8.338;2023-07-28T02:58:14;2.72;;;2.00;;
10880;SDS011;5493;48.884;8.338;2023-07-28T03:00:41;2.63;;;2.03;;
10880;SDS011;5493;48.884;8.338;2023-07-28T03:03:10;2.20;;;1.77;;
10880;SDS011;5493;48.884;8.338;2023-07-28T03:05:37;2.10;;;1.80;;
10880;SDS011;5493;48.884;8.338;2023-07-28T03:08:04;4.45;;;2.08;;
10880;SDS011;5493;48.884;8.338;2023-07-28T03:10:32;4.25;;;2.22;;
10880;SDS011;5493;48.884;8.338;2023-07-28T03:12:58;3.13;;;2.30;;
10880;SDS011;5493;48.884;8.338;2023-07-28T03:15:25;2.63;;;2.20;;
10880;SDS011;5493;48.884;8.338;2023-07-28T03:17:51;2.35;;;2.00;;
10880;SDS011;5493;48.884;8.338;2023-07-28T03:20:19;5.07;;;2.00;;
10880;SDS011;5493;48.884;8.338;2023-07-28T03:22:46;3.63;;;2.38;;
10880;SDS011;5493;48.884;8.338;2023-07-28T03:25:12;2.05;;;1.80;;
10880;SDS011;5493;48.884;8.338;2023-07-28T03:27:40;2.63;;;1.95;;
10880;SDS011;5493;48.884;8.338;2023-07-28T03:30:07;2.95;;;2.35;;
10880;SDS011;5493;48.884;8.338;2023-07-28T03:32:35;3.27;;;1.97;;
10880;SDS011;5493;48.884;8.338;2023-07-28T03:35:02;2.17;;;1.90;;
10880;SDS011;5493;48.884;8.338;2023-07-28T03:37:30;2.75;;;2.10;;
10880;SDS011;5493;48.884;8.338;2023-07-28T03:39:57;3.10;;;2.00;;
10880;SDS011;5493;48.884;8.338;2023-07-28T03:42:23;2.92;;;2.10;;
10880;SDS011;5493;48.884;8.338;2023-07-28T03:44:51;2.35;;;1.95;;
10880;SDS011;5493;48.884;8.338;2023-07-28T03:47:18;2.37;;;1.90;;
10880;SDS011;5493;48.884;8.338;2023-07-28T03:49:45;2.70;;;1.95;;
10880;SDS011;5493;48.884;8.338;2023-07-28T03:52:11;3.13;;;2.20;;
10880;SDS011;5493;48.884;8.338;2023-07-28T03:54:38;2.38;;;2.00;;
10880;SDS011;5493;48.884;8.338;2023-07-28T03:57:04;2.28;;;2.00;;
10880;SDS011;5493;48.884;8.338;2023-07-28T03:59:31;2.20;;;2.00;;
10880;SDS011;5493;48.884;8.338;2023-07-28T04:01:59;2.45;;;2.05;;
10880;SDS011;5493;48.884;8.338;2023-07-28T04:04:26;2.65;;;2.20;;
10880;SDS011;5493;48.884;8.338;2023-07-28T04:06:52;2.67;;;2.10;;
10880;SDS011;5493;48.884;8.338;2023-07-28T04:09:19;2.55;;;2.20;;
10880;SDS011;5493;48.884;8.338;2023-07-28T04:11:46;2.42;;;2.05;;
10880;SDS011;5493;48.884;8.338;2023-07-28T04:14:12;3.83;;;2.35;;
10880;SDS011;5493;48.884;8.338;2023-07-28T04:16:40;2.55;;;2.05;;
10880;SDS011;5493;48.884;8.338;2023-07-28T04:19:08;2.50;;;2.10;;
10880;SDS011;5493;48.884;8.338;2023-07-28T04:21:34;3.30;;;2.23;;
10880;SDS011;5493;48.884;8.338;2023-07-28T04:24:04;2.33;;;2.13;;
10880;SDS011;5493;48.884;8.338;2023-07-28T04:26:31;3.05;;;2.22;;
10880;SDS011;5493;48.884;8.338;2023-07-28T04:28:58;3.77;;;2.40;;
10880;SDS011;5493;48.884;8.338;2023-07-28T04:31:24;2.30;;;2.00;;
10880;SDS011;5493;48.884;8.338;2023-07-28T04:33:51;2.80;;;2.33;;
10880;SDS011;5493;48.884;8.338;2023-07-28T04:36:19;2.50;;;2.10;;
10880;SDS011;5493;48.884;8.338;2023-07-28T04:38:45;3.10;;;2.17;;
10880;SDS011;5493;48.884;8.338;2023-07-28T04:41:12;2.75;;;2.13;;
10880;SDS011;5493;48.884;8.338;2023-07-28T04:43:38;3.30;;;2.40;;
10880;SDS011;5493;48.884;8.338;2023-07-28T04:46:04;2.50;;;2.30;;
10880;SDS011;5493;48.884;8.338;2023-07-28T04:48:31;3.10;;;2.33;;
10880;SDS011;5493;48.884;8.338;2023-07-28T04:50:57;3.37;;;2.33;;
10880;SDS011;5493;48.884;8.338;2023-07-28T04:53:25;3.40;;;2.10;;
10880;SDS011;5493;48.884;8.338;2023-07-28T04:55:52;4.00;;;2.30;;
10880;SDS011;5493;48.884;8.338;2023-07-28T04:58:18;3.20;;;2.20;;
10880;SDS011;5493;48.884;8.338;2023-07-28T05:00:45;3.23;;;2.50;;
10880;SDS011;5493;48.884;8.338;2023-07-28T05:03:11;4.90;;;2.40;;
10880;SDS011;5493;48.884;8.338;2023-07-28T05:05:37;4.87;;;2.30;;
10880;SDS011;5493;48.884;8.338;2023-07-28T05:08:04;3.63;;;2.87;;
10880;SDS011;5493;48.884;8.338;2023-07-28T05:10:32;4.07;;;2.40;;
10880;SDS011;5493;48.884;8.338;2023-07-28T05:12:58;3.33;;;2.20;;
10880;SDS011;5493;48.884;8.338;2023-07-28T05:15:25;2.87;;;1.90;;
10880;SDS011;5493;48.884;8.338;2023-07-28T05:17:51;2.30;;;2.10;;
10880;SDS011;5493;48.884;8.338;2023-07-28T05:20:18;2.40;;;2.07;;
10880;SDS011;5493;48.884;8.338;2023-07-28T05:22:44;3.50;;;2.23;;
10880;SDS011;5493;48.884;8.338;2023-07-28T05:25:10;3.30;;;2.30;;
10880;SDS011;5493;48.884;8.338;2023-07-28T05:27:38;3.47;;;2.30;;
10880;SDS011;5493;48.884;8.338;2023-07-28T05:30:06;2.50;;;2.13;;
10880;SDS011;5493;48.884;8.338;2023-07-28T05:32:33;2.70;;;2.07;;
10880;SDS011;5493;48.884;8.338;2023-07-28T05:35:00;2.57;;;2.03;;
10880;SDS011;5493;48.884;8.338;2023-07-28T05:37:26;2.17;;;1.90;;
10880;SDS011;5493;48.884;8.338;2023-07-28T05:39:53;2.50;;;2.00;;
10880;SDS011;5493;48.884;8.338;2023-07-28T05:42:19;3.00;;;1.83;;
10880;SDS011;5493;48.884;8.338;2023-07-28T05:44:47;3.00;;;2.20;;
10880;SDS011;5493;48.884;8.338;2023-07-28T05:47:13;4.00;;;2.10;;
10880;SDS011;5493;48.884;8.338;2023-07-28T05:49:40;2.70;;;2.30;;
10880;SDS011;5493;48.884;8.338;2023-07-28T05:52:07;3.30;;;2.33;;
10880;SDS011;5493;48.884;8.338;2023-07-28T05:54:33;4.20;;;2.30;;
10880;SDS011;5493;48.884;8.338;2023-07-28T05:57:00;2.83;;;2.47;;
10880;SDS011;5493;48.884;8.338;2023-07-28T05:59:26;2.70;;;2.13;;
10880;SDS011;5493;48.884;8.338;2023-07-28T06:01:54;3.10;;;2.30;;
10880;SDS011;5493;48.884;8.338;2023-07-28T06:04:20;2.40;;;2.10;;
10880;SDS011;5493;48.884;8.338;2023-07-28T06:06:47;3.77;;;2.00;;
10880;SDS011;5493;48.884;8.338;2023-07-28T06:09:13;3.90;;;1.97;;
10880;SDS011;5493;48.884;8.338;2023-07-28T06:11:40;2.40;;;1.90;;
10880;SDS011;5493;48.884;8.338;2023-07-28T06:14:06;2.27;;;2.07;;
10880;SDS011;5493;48.884;8.338;2023-07-28T06:16:33;3.07;;;2.33;;
10880;SDS011;5493;48.884;8.338;2023-07-28T06:19:01;2.90;;;2.20;;
10880;SDS011;5493;48.884;8.338;2023-07-28T06:21:29;2.43;;;2.13;;
10880;SDS011;5493;48.884;8.338;2023-07-28T06:23:55;3.47;;;2.23;;
10880;SDS011;5493;48.884;8.338;2023-07-28T06:26:22;3.00;;;2.50;;
10880;SDS011;5493;48.884;8.338;2023-07-28T06:28:48;2.40;;;2.20;;
10880;SDS011;5493;48.884;8.338;2023-07-28T06:31:15;3.17;;;2.13;;
10880;SDS011;5493;48.884;8.338;2023-07-28T06:33:42;2.53;;;2.13;;
10880;SDS011;5493;48.884;8.338;2023-07-28T06:36:09;3.20;;;1.90;;
10880;SDS011;5493;48.884;8.338;2023-07-28T06:38:36;2.70;;;1.60;;
10880;SDS011;5493;48.884;8.338;2023-07-28T06:41:04;1.70;;;1.60;;
10880;SDS011;5493;48.884;8.338;2023-07-28T06:43:30;2.17;;;1.80;;
10880;SDS011;5493;48.884;8.338;2023-07-28T06:45:57;1.90;;;1.50;;
10880;SDS011;5493;48.884;8.338;2023-07-28T06:48:24;1.70;;;1.60;;
10880;SDS011;5493;48.884;8.338;2023-07-28T06:50:50;2.07;;;1.50;;
10880;SDS011;5493;48.884;8.338;2023-07-28T06:53:18;1.80;;;1.60;;
10880;SDS011;5493;48.884;8.338;2023-07-28T06:55:45;1.83;;;1.50;;
10880;SDS011;5493;48.884;8.338;2023-07-28T06:58:11;2.33;;;1.80;;
10880;SDS011;5493;48.884;8.338;2023-07-28T07:00:38;1.77;;;1.50;;
10880;SDS011;5493;48.884;8.338;2023-07-28T07:03:04;1.63;;;1.50;;
10880;SDS011;5493;48.884;8.338;2023-07-28T07:05:31;2.00;;;1.80;;
10880;SDS011;5493;48.884;8.338;2023-07-28T07:07:58;1.53;;;1.30;;
10880;SDS011;5493;48.884;8.338;2023-07-28T07:10:27;2.37;;;1.87;;
10880;SDS011;5493;48.884;8.338;2023-07-28T07:12:53;2.30;;;1.83;;
10880;SDS011;5493;48.884;8.338;2023-07-28T07:15:21;2.17;;;1.50;;
10880;SDS011;5493;48.884;8.338;2023-07-28T07:17:48;2.17;;;1.77;;
10880;SDS011;5493;48.884;8.338;2023-07-28T07:20:14;1.93;;;1.70;;
10880;SDS011;5493;48.884;8.338;2023-07-28T07:22:41;2.20;;;1.77;;
10880;SDS011;5493;48.884;8.338;2023-07-28T07:25:07;2.60;;;1.57;;
10880;SDS011;5493;48.884;8.338;2023-07-28T07:27:35;2.60;;;1.90;;
10880;SDS011;5493;48.884;8.338;2023-07-28T07:30:02;1.77;;;1.53;;
10880;SDS011;5493;48.884;8.338;2023-07-28T07:32:29;2.93;;;1.77;;
10880;SDS011;5493;48.884;8.338;2023-07-28T07:34:55;3.33;;;1.40;;
10880;SDS011;5493;48.884;8.338;2023-07-28T07:37:22;2.70;;;1.73;;
10880;SDS011;5493;48.884;8.338;2023-07-28T07:39:49;3.27;;;2.00;;
10880;SDS011;5493;48.884;8.338;2023-07-28T07:42:15;2.00;;;1.80;;
10880;SDS011;5493;48.884;8.338;2023-07-28T07:44:43;2.57;;;2.13;;
10880;SDS011;5493;48.884;8.338;2023-07-28T07:47:13;1.83;;;1.60;;
10880;SDS011;5493;48.884;8.338;2023-07-28T07:49:40;2.17;;;1.77;;
10880;SDS011;5493;48.884;8.338;2023-07-28T07:52:07;2.08;;;1.80;;
10880;SDS011;5493;48.884;8.338;2023-07-28T07:54:34;1.83;;;1.67;;
10880;SDS011;5493;48.884;8.338;2023-07-28T07:57:01;2.03;;;1.70;;
10880;SDS011;5493;48.884;8.338;2023-07-28T07:59:27;1.83;;;1.67;;
10880;SDS011;5493;48.884;8.338;2023-07-28T08:01:58;3.00;;;1.80;;
10880;SDS011;5493;48.884;8.338;2023-07-28T08:04:27;1.97;;;1.70;;
10880;SDS011;5493;48.884;8.338;2023-07-28T08:06:54;4.80;;;1.90;;
10880;SDS011;5493;48.884;8.338;2023-07-28T08:09:21;2.17;;;1.97;;
10880;SDS011;5493;48.884;8.338;2023-07-28T08:11:47;4.68;;;2.47;;
10880;SDS011;5493;48.884;8.338;2023-07-28T08:14:15;2.92;;;1.90;;
10880;SDS011;5493;48.884;8.338;2023-07-28T08:16:41;2.97;;;2.35;;
10880;SDS011;5493;48.884;8.338;2023-07-28T08:19:09;3.03;;;2.22;;
10880;SDS011;5493;48.884;8.338;2023-07-28T08:21:35;2.00;;;1.80;;
10880;SDS011;5493;48.884;8.338;2023-07-28T08:24:02;2.10;;;1.90;;
10880;SDS011;5493;48.884;8.338;2023-07-28T08:26:29;3.50;;;2.00;;
10880;SDS011;5493;48.884;8.338;2023-07-28T08:28:55;2.40;;;1.90;;
10880;SDS011;5493;48.884;8.338;2023-07-28T08:31:22;2.60;;;1.90;;
10880;SDS011;5493;48.884;8.338;2023-07-28T08:33:48;5.68;;;2.10;;
10880;SDS011;5493;48.884;8.338;2023-07-28T08:36:16;2.38;;;2.13;;
10880;SDS011;5493;48.884;8.338;2023-07-28T08:38:43;3.35;;;2.40;;
10880;SDS011;5493;48.884;8.338;2023-07-28T08:41:10;5.07;;;2.53;;
10880;SDS011;5493;48.884;8.338;2023-07-28T08:43:37;2.40;;;2.20;;
10880;SDS011;5493;48.884;8.338;2023-07-28T08:46:03;3.95;;;2.50;;
10880;SDS011;5493;48.884;8.338;2023-07-28T08:48:30;2.55;;;2.28;;
10880;SDS011;5493;48.884;8.338;2023-07-28T08:50:56;2.50;;;2.30;;
10880;SDS011;5493;48.884;8.338;2023-07-28T08:53:24;2.40;;;2.20;;
10880;SDS011;5493;48.884;8.338;2023-07-28T08:55:51;3.38;;;2.30;;
10880;SDS011;5493;48.884;8.338;2023-07-28T08:58:18;3.00;;;2.38;;
10880;SDS011;5493;48.884;8.338;2023-07-28T09:00:46;2.78;;;2.42;;
10880;SDS011;5493;48.884;8.338;2023-07-28T09:03:14;3.15;;;2.38;;
10880;SDS011;5493;48.884;8.338;2023-07-28T09:05:41;2.78;;;2.30;;
10880;SDS011;5493;48.884;8.338;2023-07-28T09:08:08;3.30;;;2.20;;
10880;SDS011;5493;48.884;8.338;2023-07-28T09:10:42;2.42;;;2.13;;
10880;SDS011;5493;48.884;8.338;2023-07-28T09:13:10;3.25;;;1.95;;
10880;SDS011;5493;48.884;8.338;2023-07-28T09:15:37;2.30;;;2.10;;
10880;SDS011;5493;48.884;8.338;2023-07-28T09:18:06;2.63;;;2.13;;
10880;SDS011;5493;48.884;8.338;2023-07-28T09:20:33;3.25;;;2.10;;
10880;SDS011;5493;48.884;8.338;2023-07-28T09:23:01;3.33;;;2.15;;
10880;SDS011;5493;48.884;8.338;2023-07-28T09:25:29;2.47;;;1.98;;
10880;SDS011;5493;48.884;8.338;2023-07-28T09:27:57;4.13;;;2.30;;
10880;SDS011;5493;48.884;8.338;2023-07-28T09:30:24;2.20;;;2.00;;
10880;SDS011;5493;48.884;8.338;2023-07-28T09:32:52;4.32;;;1.92;;
10880;SDS011;5493;48.884;8.338;2023-07-28T09:35:21;2.63;;;1.92;;
10880;SDS011;5493;48.884;8.338;2023-07-28T09:37:49;2.67;;;2.00;;
10880;SDS011;5493;48.884;8.338;2023-07-28T09:40:18;3.55;;;2.25;;
10880;SDS011;5493;48.884;8.338;2023-07-28T09:42:46;2.58;;;1.98;;
10880;SDS011;5493;48.884;8.338;2023-07-28T09:45:17;2.58;;;1.90;;
10880;SDS011;5493;48.884;8.338;2023-07-28T09:47:44;2.85;;;2.00;;
10880;SDS011;5493;48.884;8.338;2023-07-28T09:50:13;2.45;;;2.17;;
10880;SDS011;5493;48.884;8.338;2023-07-28T09:52:42;5.05;;;2.22;;
10880;SDS011;5493;48.884;8.338;2023-07-28T09:55:10;3.08;;;2.03;;
10880;SDS011;5493;48.884;8.338;2023-07-28T09:57:39;4.43;;;2.20;;
10880;SDS011;5493;48.884;8.338;2023-07-28T10:00:08;2.60;;;2.00;;
10880;SDS011;5493;48.884;8.338;2023-07-28T10:02:38;3.60;;;2.30;;
10880;SDS011;5493;48.884;8.338;2023-07-28T10:05:06;1.77;;;1.50;;
10880;SDS011;5493;48.884;8.338;2023-07-28T10:07:33;3.08;;;1.95;;
10880;SDS011;5493;48.884;8.338;2023-07-28T10:10:01;2.47;;;1.88;;
10880;SDS011;5493;48.884;8.338;2023-07-28T10:12:33;2.58;;;1.92;;
10880;SDS011;5493;48.884;8.338;2023-07-28T10:15:07;2.20;;;1.70;;
10880;SDS011;5493;48.884;8.338;2023-07-28T10:17:43;1.67;;;1.50;;
10880;SDS011;5493;48.884;8.338;2023-07-28T10:20:27;1.60;;;1.48;;
10880;SDS011;5493;48.884;8.338;2023-07-28T10:23:06;2.80;;;1.77;;
10880;SDS011;5493;48.884;8.338;2023-07-28T10:25:37;4.32;;;1.70;;
10880;SDS011;5493;48.884;8.338;2023-07-28T10:28:04;3.42;;;1.80;;
10880;SDS011;5493;48.884;8.338;2023-07-28T10:30:36;4.78;;;1.95;;
10880;SDS011;5493;48.884;8.338;2023-07-28T10:33:06;2.03;;;1.70;;
10880;SDS011;5493;48.884;8.338;2023-07-28T10:35:34;3.70;;;1.90;;
10880;SDS011;5493;48.884;8.338;2023-07-28T10:41:05;2.00;;;1.80;;
10880;SDS011;5493;48.884;8.338;2023-07-28T10:43:33;1.90;;;1.65;;
10880;SDS011;5493;48.884;8.338;2023-07-28T10:45:59;1.75;;;1.63;;
10880;SDS011;5493;48.884;8.338;2023-07-28T10:48:27;1.70;;;1.60;;
10880;SDS011;5493;48.884;8.338;2023-07-28T10:50:54;2.28;;;1.80;;
10880;SDS011;5493;48.884;8.338;2023-07-28T10:53:20;2.13;;;1.60;;
10880;SDS011;5493;48.884;8.338;2023-07-28T10:55:47;2.88;;;1.70;;
10880;SDS011;5493;48.884;8.338;2023-07-28T10:58:13;1.60;;;1.50;;
10880;SDS011;5493;48.884;8.338;2023-07-28T11:00:40;4.78;;;1.90;;
10880;SDS011;5493;48.884;8.338;2023-07-28T11:03:07;2.85;;;1.40;;
10880;SDS011;5493;48.884;8.338;2023-07-28T11:05:35;3.13;;;1.63;;
10880;SDS011;5493;48.884;8.338;2023-07-28T11:08:02;2.03;;;1.70;;
10880;SDS011;5493;48.884;8.338;2023-07-28T11:10:30;2.30;;;1.50;;
10880;SDS011;5493;48.884;8.338;2023-07-28T11:12:57;2.53;;;1.95;;
10880;SDS011;5493;48.884;8.338;2023-07-28T11:15:24;1.70;;;1.58;;
10880;SDS011;5493;48.884;8.338;2023-07-28T11:17:51;2.55;;;1.70;;
10880;SDS011;5493;48.884;8.338;2023-07-28T11:20:19;2.38;;;1.80;;
10880;SDS011;5493;48.884;8.338;2023-07-28T11:22:52;2.25;;;1.88;;
10880;SDS011;5493;48.884;8.338;2023-07-28T11:25:20;1.75;;;1.60;;
10880;SDS011;5493;48.884;8.338;2023-07-28T11:27:47;3.83;;;1.80;;
10880;SDS011;5493;48.884;8.338;2023-07-28T11:30:14;2.35;;;1.63;;
10880;SDS011;5493;48.884;8.338;2023-07-28T11:32:42;2.22;;;1.85;;
10880;SDS011;5493;48.884;8.338;2023-07-28T11:35:10;3.15;;;2.05;;
10880;SDS011;5493;48.884;8.338;2023-07-28T11:37:38;4.43;;;1.90;;
10880;SDS011;5493;48.884;8.338;2023-07-28T11:40:07;2.63;;;1.77;;
10880;SDS011;5493;48.884;8.338;2023-07-28T11:42:36;3.08;;;2.00;;
10880;SDS011;5493;48.884;8.338;2023-07-28T11:45:04;2.42;;;1.80;;
10880;SDS011;5493;48.884;8.338;2023-07-28T11:47:32;2.58;;;1.60;;
10880;SDS011;5493;48.884;8.338;2023-07-28T11:49:59;3.08;;;1.60;;
10880;SDS011;5493;48.884;8.338;2023-07-28T11:52:29;2.25;;;1.73;;
10880;SDS011;5493;48.884;8.338;2023-07-28T11:54:57;2.78;;;1.83;;
10880;SDS011;5493;48.884;8.338;2023-07-28T11:57:26;2.80;;;1.83;;
10880;SDS011;5493;48.884;8.338;2023-07-28T11:59:53;2.28;;;1.70;;
10880;SDS011;5493;48.884;8.338;2023-07-28T12:02:24;1.52;;;1.25;;
10880;SDS011;5493;48.884;8.338;2023-07-28T12:04:51;2.65;;;1.98;;
10880;SDS011;5493;48.884;8.338;2023-07-28T12:07:19;1.98;;;1.77;;
10880;SDS011;5493;48.884;8.338;2023-07-28T12:09:53;2.35;;;1.80;;
10880;SDS011;5493;48.884;8.338;2023-07-28T12:12:24;2.83;;;1.88;;
10880;SDS011;5493;48.884;8.338;2023-07-28T12:14:53;2.10;;;1.70;;
10880;SDS011;5493;48.884;8.338;2023-07-28T12:17:21;4.50;;;2.40;;
10880;SDS011;5493;48.884;8.338;2023-07-28T12:19:56;2.53;;;1.85;;
10880;SDS011;5493;48.884;8.338;2023-07-28T12:22:24;1.75;;;1.60;;
10880;SDS011;5493;48.884;8.338;2023-07-28T12:24:50;2.03;;;1.70;;
10880;SDS011;5493;48.884;8.338;2023-07-28T12:27:17;2.50;;;1.92;;
10880;SDS011;5493;48.884;8.338;2023-07-28T12:29:47;4.93;;;1.90;;
10880;SDS011;5493;48.884;8.338;2023-07-28T12:32:13;2.00;;;1.55;;
10880;SDS011;5493;48.884;8.338;2023-07-28T12:34:40;2.70;;;2.00;;
10880;SDS011;5493;48.884;8.338;2023-07-28T12:37:06;3.20;;;2.20;;
10880;SDS011;5493;48.884;8.338;2023-07-28T12:39:35;3.03;;;2.30;;
10880;SDS011;5493;48.884;8.338;2023-07-28T12:42:04;2.28;;;2.08;;
10880;SDS011;5493;48.884;8.338;2023-07-28T12:44:31;3.22;;;2.45;;
10880;SDS011;5493;48.884;8.338;2023-07-28T12:46:58;3.20;;;2.05;;
10880;SDS011;5493;48.884;8.338;2023-07-28T12:49:25;3.03;;;2.38;;
10880;SDS011;5493;48.884;8.338;2023-07-28T12:51:54;3.42;;;2.60;;
10880;SDS011;5493;48.884;8.338;2023-07-28T12:54:21;3.25;;;2.20;;
10880;SDS011;5493;48.884;8.338;2023-07-28T12:56:47;3.65;;;2.47;;
10880;SDS011;5493;48.884;8.338;2023-07-28T12:59:14;4.35;;;2.47;;
10880;SDS011;5493;48.884;8.338;2023-07-28T13:01:41;4.60;;;2.30;;
10880;SDS011;5493;48.884;8.338;2023-07-28T13:04:09;3.22;;;2.50;;
10880;SDS011;5493;48.884;8.338;2023-07-28T13:06:35;3.70;;;2.40;;
10880;SDS011;5493;48.884;8.338;2023-07-28T13:09:02;2.88;;;2.30;;
10880;SDS011;5493;48.884;8.338;2023-07-28T13:11:29;4.85;;;2.40;;
10880;SDS011;5493;48.884;8.338;2023-07-28T13:13:56;3.40;;;2.20;;
10880;SDS011;5493;48.884;8.338;2023-07-28T13:16:22;3.22;;;2.20;;
10880;SDS011;5493;48.884;8.338;2023-07-28T13:18:49;3.85;;;2.40;;
10880;SDS011;5493;48.884;8.338;2023-07-28T13:21:17;3.08;;;2.30;;
10880;SDS011;5493;48.884;8.338;2023-07-28T13:23:43;2.42;;;1.90;;
10880;SDS011;5493;48.884;8.338;2023-07-28T13:26:10;2.45;;;2.22;;
10880;SDS011;5493;48.884;8.338;2023-07-28T13:28:37;3.75;;;2.25;;
10880;SDS011;5493;48.884;8.338;2023-07-28T13:31:04;2.55;;;1.95;;
10880;SDS011;5493;48.884;8.338;2023-07-28T13:33:31;2.78;;;2.20;;
10880;SDS011;5493;48.884;8.338;2023-07-28T13:35:57;2.97;;;2.15;;
10880;SDS011;5493;48.884;8.338;2023-07-28T13:38:25;3.10;;;2.17;;
10880;SDS011;5493;48.884;8.338;2023-07-28T13:40:52;3.15;;;2.15;;
10880;SDS011;5493;48.884;8.338;2023-07-28T13:43:18;3.28;;;2.40;;
10880;SDS011;5493;48.884;8.338;2023-07-28T13:45:45;3.63;;;2.05;;
10880;SDS011;5493;48.884;8.338;2023-07-28T13:48:11;3.28;;;2.17;;
10880;SDS011;5493;48.884;8.338;2023-07-28T13:50:38;2.92;;;2.40;;
10880;SDS011;5493;48.884;8.338;2023-07-28T13:53:04;4.57;;;2.47;;
10880;SDS011;5493;48.884;8.338;2023-07-28T13:55:32;3.13;;;2.30;;
10880;SDS011;5493;48.884;8.338;2023-07-28T13:57:59;2.70;;;2.38;;
10880;SDS011;5493;48.884;8.338;2023-07-28T14:00:25;4.47;;;2.72;;
10880;SDS011;5493;48.884;8.338;2023-07-28T14:02:52;2.55;;;2.35;;
10880;SDS011;5493;48.884;8.338;2023-07-28T14:05:18;2.40;;;2.20;;
10880;SDS011;5493;48.884;8.338;2023-07-28T14:07:45;2.42;;;1.90;;
10880;SDS011;5493;48.884;8.338;2023-07-28T14:10:12;4.53;;;2.00;;
10880;SDS011;5493;48.884;8.338;2023-07-28T14:12:40;4.07;;;2.40;;
10880;SDS011;5493;48.884;8.338;2023-07-28T14:15:07;3.92;;;2.22;;
10880;SDS011;5493;48.884;8.338;2023-07-28T14:17:34;3.03;;;1.80;;
10880;SDS011;5493;48.884;8.338;2023-07-28T14:20:00;2.63;;;1.80;;
10880;SDS011;5493;48.884;8.338;2023-07-28T14:22:27;2.15;;;1.90;;
10880;SDS011;5493;48.884;8.338;2023-07-28T14:24:54;3.42;;;2.20;;
10880;SDS011;5493;48.884;8.338;2023-07-28T14:27:20;2.72;;;2.00;;
10880;SDS011;5493;48.884;8.338;2023-07-28T14:29:48;3.00;;;2.10;;
10880;SDS011;5493;48.884;8.338;2023-07-28T14:32:15;2.22;;;1.95;;
10880;SDS011;5493;48.884;8.338;2023-07-28T14:34:41;3.00;;;2.10;;
10880;SDS011;5493;48.884;8.338;2023-07-28T14:37:08;2.10;;;1.90;;
10880;SDS011;5493;48.884;8.338;2023-07-28T14:39:34;2.05;;;1.85;;
10880;SDS011;5493;48.884;8.338;2023-07-28T14:42:01;3.03;;;1.75;;
10880;SDS011;5493;48.884;8.338;2023-07-28T14:44:28;2.25;;;2.00;;
10880;SDS011;5493;48.884;8.338;2023-07-28T14:46:56;2.97;;;2.05;;
10880;SDS011;5493;48.884;8.338;2023-07-28T14:49:23;2.58;;;2.05;;
10880;SDS011;5493;48.884;8.338;2023-07-28T14:51:52;2.13;;;1.92;;
10880;SDS011;5493;48.884;8.338;2023-07-28T14:54:19;2.10;;;1.80;;
10880;SDS011;5493;48.884;8.338;2023-07-28T14:56:45;3.13;;;2.10;;
10880;SDS011;5493;48.884;8.338;2023-07-28T14:59:12;2.83;;;2.05;;
10880;SDS011;5493;48.884;8.338;2023-07-28T15:01:39;2.35;;;1.88;;
10880;SDS011;5493;48.884;8.338;2023-07-28T15:04:07;2.47;;;1.85;;